PAVD METAR and TAF weather

Enter ICAO airport designator
Station Type Date Time Source
PAVD METAR 2021/05/11 15:56 UTC NOAA

PAVD 111556Z 18003KT 10SM FEW008 BKN060 OVC080 05/05 A3001 RMK AO2 SLP161 VCSH NE E T00500050


Station Type Date Time Source
PAVD Decoded METAR 2021/05/11 15:56 UTC NOAA

Valdez 2, AK, United States (PAVD) 61-08N 146-16W
May 11, 2021 - 11:56 AM EDT / 2021.05.11 1556 UTC
Wind: from the S (180 degrees) at 3 MPH (3 KT):0
Visibility: 10 mile(s):0
Sky conditions: overcast
Temperature: 41.0 F (5.0 C)
Dew Point: 41.0 F (5.0 C)
Relative Humidity: 100%
Pressure (altimeter): 30.01 in. Hg (1016 hPa)
ob: PAVD 111556Z 18003KT 10SM FEW008 BKN060 OVC080 05/05 A3001 RMK AO2 SLP161 VCSH NE E T00500050
cycle: 16

Station Type Date Time Source
PAVD TAF 2021/05/11 15:21 UTC NOAA

TAF
AMD PAVD 111519Z 1115/1212 VRB03KT P6SM SCT025 BKN050
TEMPO 1115/1119 6SM -RA BR BKN025
FM111900 25005KT 4SM -RA BR SCT007 OVC015
FM120600 VRB04KT P6SM VCSH SCT020 BKN040
AMD LTD TO CLD VIS AND WIND

Example: see airport list